地図

経路データ

SID SEASON NUMBER BASIN SUBBASIN NAME ISO_TIME NATURE LAT LON WMO_WIND WMO_PRES WMO_AGENCY TRACK_TYPE DIST2LAND LANDFALL IFLAG USA_AGENCY USA_ATCF_ID USA_LAT USA_LON USA_RECORD USA_STATUS USA_WIND USA_PRES USA_SSHS USA_R34_NE USA_R34_SE USA_R34_SW USA_R34_NW USA_R50_NE USA_R50_SE USA_R50_SW USA_R50_NW USA_R64_NE USA_R64_SE USA_R64_SW USA_R64_NW USA_POCI USA_ROCI USA_RMW USA_EYE TOKYO_LAT TOKYO_LON TOKYO_GRADE TOKYO_WIND TOKYO_PRES TOKYO_R50_DIR TOKYO_R50_LONG TOKYO_R50_SHORT TOKYO_R30_DIR TOKYO_R30_LONG TOKYO_R30_SHORT TOKYO_LAND CMA_LAT CMA_LON CMA_CAT CMA_WIND CMA_PRES HKO_LAT HKO_LON HKO_CAT HKO_WIND HKO_PRES NEWDELHI_LAT NEWDELHI_LON NEWDELHI_GRADE NEWDELHI_WIND NEWDELHI_PRES NEWDELHI_CI NEWDELHI_DP NEWDELHI_POCI REUNION_LAT REUNION_LON REUNION_TYPE REUNION_WIND REUNION_PRES REUNION_TNUM REUNION_CI REUNION_RMW REUNION_R34_NE REUNION_R34_SE REUNION_R34_SW REUNION_R34_NW REUNION_R50_NE REUNION_R50_SE REUNION_R50_SW REUNION_R50_NW REUNION_R64_NE REUNION_R64_SE REUNION_R64_SW REUNION_R64_NW BOM_LAT BOM_LON BOM_TYPE BOM_WIND BOM_PRES BOM_TNUM BOM_CI BOM_RMW BOM_R34_NE BOM_R34_SE BOM_R34_SW BOM_R34_NW BOM_R50_NE BOM_R50_SE BOM_R50_SW BOM_R50_NW BOM_R64_NE BOM_R64_SE BOM_R64_SW BOM_R64_NW BOM_ROCI BOM_POCI BOM_EYE BOM_POS_METHOD BOM_PRES_METHOD NADI_LAT NADI_LON NADI_CAT NADI_WIND NADI_PRES WELLINGTON_LAT WELLINGTON_LON WELLINGTON_WIND WELLINGTON_PRES DS824_LAT DS824_LON DS824_STAGE DS824_WIND DS824_PRES TD9636_LAT TD9636_LON TD9636_STAGE TD9636_WIND TD9636_PRES TD9635_LAT TD9635_LON TD9635_WIND TD9635_PRES TD9635_ROCI NEUMANN_LAT NEUMANN_LON NEUMANN_CLASS NEUMANN_WIND NEUMANN_PRES MLC_LAT MLC_LON MLC_CLASS MLC_WIND MLC_PRES USA_GUST BOM_GUST BOM_GUST_PER REUNION_GUST REUNION_GUST_PER USA_SEAHGT USA_SEARAD_NE USA_SEARAD_SE USA_SEARAD_SW USA_SEARAD_NW STORM_SPEED STORM_DIR
1981219N12255 1981 63 EP MM FERNANDA 1981-08-06 12:00:00 TS 12.0000 -104.600 30 hurdat_epa main 702 702 O_________O___ hurdat_epa EP061981 12.0000 -104.600 TD 30 -1 12.0000 -104.600 1 30 16 274
1981219N12255 1981 63 EP MM FERNANDA 1981-08-06 15:00:00 TS 12.0535 -105.399 main 722 722 P_________P___ EP061981 12.0629 -105.390 TD 30 -1 12.0253 -105.426 1 30 16 273
1981219N12255 1981 63 EP MM FERNANDA 1981-08-06 18:00:00 TS 12.0874 -106.213 30 hurdat_epa main 752 752 O_________P___ hurdat_epa EP061981 12.1000 -106.200 TD 30 -1 12.0495 -106.252 1 30 16 271
1981219N12255 1981 63 EP MM FERNANDA 1981-08-06 21:00:00 TS 12.0933 -107.051 main 794 794 P_________P___ EP061981 12.0998 -107.043 TD 30 -1 12.0740 -107.077 1 30 17 270
1981219N12255 1981 63 EP MM FERNANDA 1981-08-07 00:00:00 TS 12.1000 -107.900 30 hurdat_epa main 839 839 O_________O___ hurdat_epa EP061981 12.1000 -107.900 TD 30 -1 12.1000 -107.900 1 30 17 272
1981219N12255 1981 63 EP MM FERNANDA 1981-08-07 03:00:00 TS 12.1392 -108.748 main 890 890 P_________P___ EP061981 12.1423 -108.757 TD 32 -1 12.1298 -108.721 1 32 17 273
1981219N12255 1981 63 EP MM FERNANDA 1981-08-07 06:00:00 TS 12.1922 -109.586 35 hurdat_epa main 936 936 O_________P___ hurdat_epa EP061981 12.2000 -109.600 TS 35 0 12.1689 -109.543 1 35 16 273
1981219N12255 1981 63 EP MM FERNANDA 1981-08-07 09:00:00 TS 12.2319 -110.392 main 986 986 P_________P___ EP061981 12.2346 -110.400 TS 37 0 12.2235 -110.368 1 37 16 274
1981219N12255 1981 63 EP MM FERNANDA 1981-08-07 12:00:00 TS 12.3000 -111.200 40 hurdat_epa main 1032 1032 O_________O___ hurdat_epa EP061981 12.3000 -111.200 TS 40 0 12.3000 -111.200 2 40 16 277
1981219N12255 1981 63 EP MM FERNANDA 1981-08-07 15:00:00 TS 12.4264 -112.046 main 1082 1082 P_________P___ EP061981 12.4423 -112.042 TS 40 0 12.3787 -112.055 2 42 17 279
1981219N12255 1981 63 EP MM FERNANDA 1981-08-07 18:00:00 TS 12.5705 -112.904 40 hurdat_epa main 1135 1135 O_________P___ hurdat_epa EP061981 12.6000 -112.900 TS 40 0 12.4820 -112.916 2 45 17 278
1981219N12255 1981 63 EP MM FERNANDA 1981-08-07 21:00:00 TS 12.6684 -113.760 main 1198 1198 P_________P___ EP061981 12.6848 -113.758 TS 45 0 12.6193 -113.768 2 47 17 278
1981219N12255 1981 63 EP MM FERNANDA 1981-08-08 00:00:00 TS 12.8000 -114.600 50 hurdat_epa main 1230 1228 O_________O___ hurdat_epa EP061981 12.8000 -114.600 TS 50 0 12.8000 -114.600 2 50 17 282
1981219N12255 1981 63 EP MM FERNANDA 1981-08-08 03:00:00 TS 13.0246 -115.412 main 1245 1240 P_________P___ EP061981 13.0198 -115.415 TS 50 0 13.0391 -115.404 2 50 16 288
1981219N12255 1981 63 EP MM FERNANDA 1981-08-08 06:00:00 TS 13.3047 -116.197 50 hurdat_epa main 1257 1253 O_________P___ hurdat_epa EP061981 13.3000 -116.200 TS 50 0 13.3189 -116.187 2 50 16 291
1981219N12255 1981 63 EP MM FERNANDA 1981-08-08 09:00:00 TS 13.5977 -116.956 main 1275 1272 P_________P___ EP061981 13.5922 -116.958 TS 50 0 13.6142 -116.951 2 50 16 292
1981219N12255 1981 63 EP MM FERNANDA 1981-08-08 12:00:00 TS 13.9000 -117.700 50 hurdat_epa main 1293 1290 O_________O___ hurdat_epa EP061981 13.9000 -117.700 TS 50 0 13.9000 -117.700 2 50 16 293
1981219N12255 1981 63 EP MM FERNANDA 1981-08-08 15:00:00 TS 14.2109 -118.454 main 1322 1320 P_________P___ EP061981 14.2223 -118.457 TS 55 0 14.1767 -118.444 2 52 16 292
1981219N12255 1981 63 EP MM FERNANDA 1981-08-08 18:00:00 TS 14.4836 -119.193 60 hurdat_epa main 1348 1348 O_________P___ hurdat_epa EP061981 14.5000 -119.200 TS 60 0 14.4344 -119.174 2 55 15 288
1981219N12255 1981 63 EP MM FERNANDA 1981-08-08 21:00:00 TS 14.6779 -119.904 main 1383 1383 P_________P___ EP061981 14.6872 -119.908 TS 60 0 14.6499 -119.891 2 57 14 283
1981219N12255 1981 63 EP MM FERNANDA 1981-08-09 00:00:00 TS 14.8000 -120.600 60 hurdat_epa main 1419 1419 O_________O___ hurdat_epa EP061981 14.8000 -120.600 TS 60 0 14.8000 -120.600 2 60 14 278
1981219N12255 1981 63 EP MM FERNANDA 1981-08-09 03:00:00 TS 14.8576 -121.301 main 1457 1457 P_________P___ EP061981 14.8573 -121.300 TS 62 0 14.8587 -121.303 2 62 14 274
1981219N12255 1981 63 EP MM FERNANDA 1981-08-09 06:00:00 TS 14.9000 -122.000 65 hurdat_epa main 1506 1506 O_________O___ hurdat_epa EP061981 14.9000 -122.000 HU 65 1 14.9000 -122.000 3 65 14 275
1981219N12255 1981 63 EP MM FERNANDA 1981-08-09 09:00:00 TS 14.9790 -122.700 main 1549 1549 P_________P___ EP061981 14.9773 -122.700 HU 67 1 14.9843 -122.700 3 67 14 278
1981219N12255 1981 63 EP MM FERNANDA 1981-08-09 12:00:00 TS 15.1000 -123.400 70 hurdat_epa main 1594 1594 O_________O___ hurdat_epa EP061981 15.1000 -123.400 HU 70 1 15.1000 -123.400 4 70 14 282
1981219N12255 1981 63 EP MM FERNANDA 1981-08-09 15:00:00 TS 15.2754 -124.099 main 1633 1633 P_________P___ EP061981 15.2923 -124.100 HU 72 1 15.2246 -124.097 4 73 14 285
1981219N12255 1981 63 EP MM FERNANDA 1981-08-09 18:00:00 TS 15.4694 -124.799 75 hurdat_epa main 1674 1674 O_________P___ hurdat_epa EP061981 15.5000 -124.800 HU 75 1 15.3776 -124.794 4 77 14 284
1981219N12255 1981 63 EP MM FERNANDA 1981-08-09 21:00:00 TS 15.6121 -125.493 main 1725 1725 P_________P___ EP061981 15.6272 -125.493 HU 80 1 15.5668 -125.494 4 81 14 284
1981219N12255 1981 63 EP MM FERNANDA 1981-08-10 00:00:00 TS 15.8000 -126.200 85 hurdat_epa main 1760 1760 O_________O___ hurdat_epa EP061981 15.8000 -126.200 HU 85 2 15.8000 -126.200 4 85 15 290
1981219N12255 1981 63 EP MM FERNANDA 1981-08-10 03:00:00 TS 16.1118 -126.943 main 1783 1781 P_________P___ EP061981 16.1274 -126.950 HU 85 2 16.0651 -126.922 4 85 16 295
1981219N12255 1981 63 EP MM FERNANDA 1981-08-10 06:00:00 TS 16.4686 -127.688 85 hurdat_epa main 1808 1808 O_________P___ hurdat_epa EP061981 16.5000 -127.700 HU 85 2 16.3744 -127.651 4 85 15 296
1981219N12255 1981 63 EP MM FERNANDA 1981-08-10 09:00:00 TS 16.7801 -128.395 main 1837 1837 P_________P___ EP061981 16.7996 -128.400 HU 85 2 16.7214 -128.379 4 85 15 295
1981219N12255 1981 63 EP MM FERNANDA 1981-08-10 12:00:00 TS 17.1000 -129.100 85 hurdat_epa main 1868 1868 O_________O___ hurdat_epa EP061981 17.1000 -129.100 HU 85 2 17.1000 -129.100 4 85 15 295
1981219N12255 1981 63 EP MM FERNANDA 1981-08-10 15:00:00 TS 17.4359 -129.848 main 1903 1903 P_________P___ EP061981 17.4200 -129.858 HU 87 2 17.4835 -129.820 4 86 16 297
1981219N12255 1981 63 EP MM FERNANDA 1981-08-10 18:00:00 TS 17.8242 -130.583 90 hurdat_epa main 1941 1941 O_________P___ hurdat_epa EP061981 17.8000 -130.600 HU 90 2 17.8969 -130.531 4 87 16 303
1981219N12255 1981 63 EP MM FERNANDA 1981-08-10 21:00:00 TS 18.2920 -131.256 main 1967 1967 P_________P___ EP061981 18.2771 -131.265 HU 90 2 18.3367 -131.226 4 88 16 308
1981219N12255 1981 63 EP MM FERNANDA 1981-08-11 00:00:00 TS 18.8000 -131.900 90 hurdat_epa main 1988 1988 O_________O___ hurdat_epa EP061981 18.8000 -131.900 HU 90 2 18.8000 -131.900 4 90 16 309
1981219N12255 1981 63 EP MM FERNANDA 1981-08-11 03:00:00 TS 19.2952 -132.554 main 2021 2015 P_________P___ EP061981 19.2998 -132.558 HU 85 2 19.2814 -132.543 4 85 16 309
1981219N12255 1981 63 EP MM FERNANDA 1981-08-11 06:00:00 TS 19.7959 -133.192 80 hurdat_epa main 2047 2041 O_________P___ hurdat_epa EP061981 19.8000 -133.200 HU 80 1 19.7835 -133.166 4 80 15 311
1981219N12255 1981 63 EP MM FERNANDA 1981-08-11 09:00:00 TS 20.2982 -133.796 main 2045 2035 P_________P___ EP061981 20.2996 -133.801 HU 75 1 20.2939 -133.781 4 75 15 312
1981219N12255 1981 63 EP MM FERNANDA 1981-08-11 12:00:00 TS 20.8000 -134.400 70 hurdat_epa main 2039 2033 O_________O___ hurdat_epa EP061981 20.8000 -134.400 HU 70 1 20.8000 -134.400 4 70 16 311
1981219N12255 1981 63 EP MM FERNANDA 1981-08-11 15:00:00 TS 21.3104 -135.060 main 2043 2002 P_________P___ EP061981 21.3073 -135.043 HU 65 1 21.3195 -135.111 4 65 16 309
1981219N12255 1981 63 EP MM FERNANDA 1981-08-11 18:00:00 TS 21.8066 -135.729 60 hurdat_epa main 2002 1934 O_________P___ hurdat_epa EP061981 21.8000 -135.700 TS 60 0 21.8263 -135.818 4 60 16 308
1981219N12255 1981 63 EP MM FERNANDA 1981-08-11 21:00:00 TS 22.2839 -136.424 main 1935 1879 P_________P___ EP061981 22.2803 -136.410 TS 55 0 22.2948 -136.467 4 55 15 307
1981219N12255 1981 63 EP MM FERNANDA 1981-08-12 00:00:00 TS 22.7000 -137.000 50 hurdat_epa main 1879 1853 O_________O___ hurdat_epa EP061981 22.7000 -137.000 TS 50 0 22.7000 -137.000 2 50 11 312
1981219N12255 1981 63 EP MM FERNANDA 1981-08-12 03:00:00 TS 23.0351 -137.327 main 1853 1837 P_________P___ EP061981 23.0370 -137.318 TS 45 0 23.0292 -137.354 2 45 8 321
1981219N12255 1981 63 EP MM FERNANDA 1981-08-12 06:00:00 TS 23.2989 -137.522 40 hurdat_epa main 1838 1820 O_________P___ hurdat_epa EP061981 23.3000 -137.500 TS 40 0 23.2955 -137.588 2 40 6 323
1981219N12255 1981 63 EP MM FERNANDA 1981-08-12 09:00:00 TS 23.5148 -137.725 main 1822 1805 P_________P___ EP061981 23.5150 -137.715 TS 35 0 23.5141 -137.753 2 35 5 319
1981219N12255 1981 63 EP MM FERNANDA 1981-08-12 12:00:00 TS 23.7000 -137.900 30 hurdat_epa main 1807 1799 O_________O___ hurdat_epa EP061981 23.7000 -137.900 TD 30 -1 23.7000 -137.900 1 30 5 322
1981219N12255 1981 63 EP MM FERNANDA 1981-08-12 15:00:00 TS 23.9027 -138.050 main 1802 1784 P_________P___ EP061981 23.9149 -138.043 TD 30 -1 23.8661 -138.071 1 28 5 323
1981219N12255 1981 63 EP MM FERNANDA 1981-08-12 18:00:00 TS 24.0796 -138.217 30 hurdat_epa main 1787 1770 O_________P___ hurdat_epa EP061981 24.1000 -138.200 TD 30 -1 24.0185 -138.266 1 27 5 310
1981219N12255 1981 63 EP MM FERNANDA 1981-08-12 21:00:00 TS 24.2055 -138.440 main 1770 1743 P_________P___ EP061981 24.2202 -138.427 TD 27 -1 24.1617 -138.479 1 26 5 297
1981219N12255 1981 63 EP MM FERNANDA 1981-08-13 00:00:00 TS 24.3000 -138.700 25 hurdat_epa main 1743 O_________O___ hurdat_epa EP061981 24.3000 -138.700 TD 25 -1 24.3000 -138.700 1 25 5 292

IBTrACS Databaseについて

本データベースは、米国NOAAが公開する1842年以降の世界の熱帯低気圧のベストトラックデータアーカイブInternational Best Track Archive for Climate Stewardship (IBTrACS)を、ウェブで閲覧しやすい形式に変換したものです。

最終更新日:2021-12-06